createdAt,value
2017-07-28T00:01:59.818Z,99745.73
2017-07-28T00:04:27.210Z,99747.89
2017-07-28T00:06:54.612Z,99749.25
2017-07-28T00:09:22.011Z,99749.37
2017-07-28T00:11:49.408Z,99758.23
2017-07-28T00:14:16.823Z,99758.92
2017-07-28T00:16:44.218Z,99761.46
2017-07-28T00:19:11.610Z,99762.80
2017-07-28T00:21:39.015Z,99763.46
2017-07-28T00:24:06.410Z,99759.81
2017-07-28T00:26:33.795Z,99764.55
2017-07-28T00:29:01.290Z,99763.86
2017-07-28T00:31:28.674Z,99757.39
2017-07-28T00:33:56.071Z,99759.14
2017-07-28T00:36:24.391Z,99758.85
2017-07-28T00:38:51.784Z,99760.20
2017-07-28T00:41:19.187Z,99765.72
2017-07-28T00:43:47.067Z,99766.75
2017-07-28T00:46:14.459Z,99764.70
2017-07-28T00:48:41.846Z,99772.13
2017-07-28T00:51:09.547Z,99783.11
2017-07-28T00:53:36.938Z,99780.16
2017-07-28T00:56:04.339Z,99789.45
2017-07-28T00:58:31.771Z,99782.77
2017-07-28T01:00:59.163Z,99783.34
2017-07-28T01:03:26.550Z,99782.70
2017-07-28T01:05:54.294Z,99784.09
2017-07-28T01:08:21.681Z,99783.14
2017-07-28T01:10:49.082Z,99782.07
2017-07-28T01:13:16.638Z,99789.45
2017-07-28T01:15:44.030Z,99787.27
2017-07-28T01:18:11.414Z,99787.49
2017-07-28T01:20:38.959Z,99797.25
2017-07-28T01:23:06.346Z,99797.86
2017-07-28T01:25:33.734Z,99806.00
2017-07-28T01:28:01.134Z,99800.95
2017-07-28T01:30:28.527Z,99806.00
2017-07-28T01:32:55.910Z,99806.45
2017-07-28T01:35:23.454Z,99802.36
2017-07-28T01:37:50.834Z,99793.44
2017-07-28T01:40:18.222Z,99803.02
2017-07-28T01:42:45.774Z,99805.36
2017-07-28T01:45:13.164Z,99809.87
2017-07-28T01:47:40.555Z,99811.83
2017-07-28T01:50:08.323Z,99818.71
2017-07-28T01:52:35.711Z,99818.39
2017-07-28T01:55:03.099Z,99819.11
2017-07-28T01:57:30.539Z,99822.36
2017-07-28T01:59:57.927Z,99824.48
2017-07-28T02:02:25.327Z,99829.53
2017-07-28T02:04:52.862Z,99830.92
2017-07-28T02:07:20.258Z,99829.62
2017-07-28T02:09:47.655Z,99834.34
2017-07-28T02:12:15.439Z,99838.42
2017-07-28T02:14:42.824Z,99843.55
2017-07-28T02:17:10.213Z,99844.34
2017-07-28T02:19:37.816Z,99838.28
2017-07-28T02:22:05.211Z,99839.07
2017-07-28T02:24:32.598Z,99848.74
2017-07-28T02:27:00.034Z,99856.99
2017-07-28T02:29:27.422Z,99860.14
2017-07-28T02:31:54.811Z,99867.28
2017-07-28T02:34:22.227Z,99866.68
2017-07-28T02:36:49.614Z,99867.74
2017-07-28T02:39:17.002Z,99862.23
2017-07-28T02:41:44.622Z,99859.78
2017-07-28T02:44:12.018Z,99859.63
2017-07-28T02:46:39.419Z,99856.80
2017-07-28T02:49:07.305Z,99858.84
2017-07-28T02:51:34.694Z,99867.55
2017-07-28T02:54:02.078Z,99865.79
2017-07-28T02:56:29.479Z,99866.06
2017-07-28T02:58:56.862Z,99873.02
2017-07-28T03:01:24.251Z,99874.72
2017-07-28T03:03:51.790Z,99867.27
2017-07-28T03:06:19.183Z,99866.48
2017-07-28T03:08:46.563Z,99868.70
2017-07-28T03:11:14.223Z,99871.58
2017-07-28T03:13:41.614Z,99876.80
2017-07-28T03:16:09.003Z,99868.05
2017-07-28T03:18:36.440Z,99874.44
2017-07-28T03:21:03.832Z,99881.70
2017-07-28T03:23:31.215Z,99878.23
2017-07-28T03:25:58.659Z,99889.47
2017-07-28T03:28:26.071Z,99881.14
2017-07-28T03:30:53.459Z,99888.17
2017-07-28T03:33:20.879Z,99890.45
2017-07-28T03:35:48.266Z,99893.72
2017-07-28T03:38:15.652Z,99898.31
2017-07-28T03:40:43.193Z,99890.06
2017-07-28T03:43:10.606Z,99901.03
2017-07-28T03:45:37.997Z,99903.50
2017-07-28T03:48:05.562Z,99899.97
2017-07-28T03:50:32.958Z,99892.74
2017-07-28T03:53:00.356Z,99900.90
2017-07-28T03:55:27.851Z,99907.24
2017-07-28T03:57:55.238Z,99915.84
2017-07-28T04:00:22.626Z,99911.92
2017-07-28T04:02:50.043Z,99909.08
2017-07-28T04:05:17.432Z,99910.63
2017-07-28T04:07:44.818Z,99911.69
2017-07-28T04:10:12.227Z,99910.84
2017-07-28T04:12:39.623Z,99918.05
2017-07-28T04:15:07.010Z,99915.92
2017-07-28T04:17:34.546Z,99914.78
2017-07-28T04:20:01.940Z,99907.01
2017-07-28T04:22:29.332Z,99904.61
2017-07-28T04:24:56.877Z,99906.88
2017-07-28T04:27:24.258Z,99906.07
2017-07-28T04:29:51.652Z,99918.84
2017-07-28T04:32:19.148Z,99912.41
2017-07-28T04:34:46.526Z,99921.38
2017-07-28T04:37:13.922Z,99923.50
2017-07-28T04:39:41.318Z,99922.86
2017-07-28T04:42:08.706Z,99927.02
2017-07-28T04:44:36.095Z,99932.25
2017-07-28T04:47:03.842Z,99927.02
2017-07-28T04:49:31.205Z,99927.56
2017-07-28T04:51:58.610Z,99934.05
2017-07-28T04:54:26.139Z,99928.88
2017-07-28T04:56:53.538Z,99931.63
2017-07-28T04:59:20.931Z,99933.01
2017-07-28T05:01:48.351Z,99932.14
2017-07-28T05:04:15.735Z,99933.63
2017-07-28T05:06:43.126Z,99934.46
2017-07-28T05:09:10.581Z,99937.43
2017-07-28T05:11:37.968Z,99944.77
2017-07-28T05:14:05.350Z,99944.81
2017-07-28T05:16:32.846Z,99947.92
2017-07-28T05:19:00.233Z,99955.37
2017-07-28T05:21:27.614Z,99945.91
2017-07-28T05:23:55.378Z,99945.36
2017-07-28T05:26:22.757Z,99938.94
2017-07-28T05:28:50.184Z,99945.66
2017-07-28T05:31:18.463Z,99946.86
2017-07-28T05:33:45.944Z,99944.73
2017-07-28T05:36:13.372Z,99941.48
2017-07-28T05:38:40.897Z,99936.76
2017-07-28T05:41:08.336Z,99947.78
2017-07-28T05:43:35.730Z,99960.20
2017-07-28T05:46:03.327Z,99949.59
2017-07-28T05:48:30.746Z,99948.91
2017-07-28T05:50:58.169Z,99953.89
2017-07-28T05:53:25.777Z,99952.19
2017-07-28T05:55:53.182Z,99965.16
2017-07-28T05:58:21.762Z,99964.83
2017-07-28T06:00:49.422Z,99970.50
2017-07-28T06:03:18.214Z,99966.55
2017-07-28T06:08:39.734Z,99960.30
2017-07-28T06:11:07.590Z,99964.69
2017-07-28T06:13:35.027Z,99965.12
2017-07-28T06:16:02.462Z,99971.72
2017-07-28T06:18:29.959Z,99968.37
2017-07-28T06:20:57.376Z,99972.86
2017-07-28T06:23:24.790Z,99960.09
2017-07-28T06:25:53.217Z,99960.98
2017-07-28T06:28:20.694Z,99972.77
2017-07-28T06:30:49.710Z,99981.41
2017-07-28T06:33:19.686Z,99991.15
2017-07-28T06:35:47.155Z,99997.31
2017-07-28T06:38:14.654Z,99990.67
2017-07-28T06:40:42.222Z,99993.60
2017-07-28T06:43:09.648Z,99989.21
2017-07-28T06:45:37.026Z,99999.72
2017-07-28T06:48:04.787Z,99990.67
2017-07-28T06:50:32.230Z,99998.48
2017-07-28T06:52:59.630Z,99991.92
2017-07-28T06:55:27.251Z,99994.23
2017-07-28T06:57:55.190Z,100002.80
2017-07-28T07:00:22.600Z,100002.06
2017-07-28T07:02:50.172Z,100008.12
2017-07-28T07:05:17.592Z,100015.36
2017-07-28T07:07:45.016Z,100018.91
2017-07-28T07:10:12.636Z,100034.39
2017-07-28T07:12:41.015Z,100032.11
2017-07-28T07:15:09.358Z,100021.16
2017-07-28T07:17:36.927Z,100025.17
2017-07-28T07:20:04.354Z,100018.66
2017-07-28T07:22:31.762Z,100028.11
2017-07-28T07:24:59.277Z,100023.91
2017-07-28T07:27:26.698Z,100026.49
2017-07-28T07:29:54.123Z,100022.72
2017-07-28T07:32:21.542Z,100024.66
2017-07-28T07:34:48.976Z,100032.12
2017-07-28T07:37:16.374Z,100032.34
2017-07-28T07:39:43.997Z,100030.72
2017-07-28T07:42:11.382Z,100038.45
2017-07-28T07:44:38.846Z,100055.22
2017-07-28T07:47:06.348Z,100052.05
2017-07-28T07:49:33.834Z,100055.67
2017-07-28T07:52:01.241Z,100051.17
2017-07-28T07:54:28.686Z,100043.09
2017-07-28T07:56:56.161Z,100043.00
2017-07-28T07:59:23.579Z,100041.55
2017-07-28T08:01:51.070Z,100047.39
2017-07-28T08:04:18.467Z,100048.81
2017-07-28T08:06:45.927Z,100053.55
2017-07-28T08:09:13.541Z,100060.03
2017-07-28T08:11:40.961Z,100056.67
2017-07-28T08:14:08.799Z,100056.54
2017-07-28T08:16:36.874Z,100053.14
2017-07-28T08:19:04.306Z,100047.59
2017-07-28T08:21:31.712Z,100048.36
2017-07-28T08:23:59.681Z,100057.25
2017-07-28T08:26:27.070Z,100068.90
2017-07-28T08:28:54.505Z,100065.41
2017-07-28T08:31:32.191Z,100059.96
2017-07-28T08:33:59.638Z,100068.17
2017-07-28T08:36:27.042Z,100066.50
2017-07-28T08:38:54.558Z,100068.17
2017-07-28T08:41:21.967Z,100067.37
2017-07-28T08:43:49.388Z,100063.58
2017-07-28T08:46:16.887Z,100067.52
2017-07-28T08:48:44.310Z,100058.26
2017-07-28T08:51:11.722Z,100057.78
2017-07-28T08:53:39.229Z,100051.55
2017-07-28T08:56:06.628Z,100053.91
2017-07-28T08:58:34.512Z,100049.08
2017-07-28T09:01:02.318Z,100046.42
2017-07-28T09:03:29.749Z,100058.72
2017-07-28T09:06:05.204Z,100067.00
2017-07-28T09:08:32.591Z,100083.73
2017-07-28T09:11:00.005Z,100087.30
2017-07-28T09:13:27.565Z,100085.69
2017-07-28T09:15:55.039Z,100081.42
2017-07-28T09:18:22.529Z,100066.47
2017-07-28T09:20:49.962Z,100072.48
2017-07-28T09:23:17.424Z,100069.74
2017-07-28T09:25:44.831Z,100067.08
2017-07-28T09:28:12.255Z,100072.45
2017-07-28T09:30:39.686Z,100081.77
2017-07-28T09:33:07.095Z,100081.01
2017-07-28T09:35:34.519Z,100083.09
2017-07-28T09:38:01.924Z,100089.48
2017-07-28T09:40:29.313Z,100081.66
2017-07-28T09:42:56.758Z,100084.02
2017-07-28T09:45:24.194Z,100085.34
2017-07-28T09:47:51.589Z,100095.73
2017-07-28T09:50:19.173Z,100096.25
2017-07-28T09:52:46.566Z,100091.48
2017-07-28T09:55:14.046Z,100077.94
2017-07-28T09:57:41.510Z,100094.56
2017-07-28T10:00:08.934Z,100092.16
2017-07-28T10:02:36.383Z,100095.52
2017-07-28T10:05:04.111Z,100092.38
2017-07-28T10:07:31.506Z,100094.41
2017-07-28T10:09:58.938Z,100094.26
2017-07-28T10:12:26.735Z,100093.12
2017-07-28T10:15:05.181Z,100090.40
2017-07-28T10:17:32.713Z,100090.95
2017-07-28T10:20:00.134Z,100084.61
2017-07-28T10:22:27.535Z,100093.64
2017-07-28T10:24:55.106Z,100096.41
2017-07-28T10:27:22.510Z,100094.58
2017-07-28T10:29:49.947Z,100103.58
2017-07-28T10:32:17.358Z,100099.37
2017-07-28T10:34:45.730Z,100109.86
2017-07-28T10:37:13.135Z,100107.06
2017-07-28T10:39:41.752Z,100106.29
2017-07-28T10:42:09.198Z,100100.48
2017-07-28T10:44:36.577Z,100103.36
2017-07-28T10:47:03.992Z,100100.20
2017-07-28T10:49:31.431Z,100107.63
2017-07-28T10:51:58.812Z,100109.55
2017-07-28T10:54:26.321Z,100109.85
2017-07-28T10:56:53.734Z,100104.72
2017-07-28T10:59:21.138Z,100115.13
2017-07-28T11:01:49.024Z,100117.02
2017-07-28T11:04:16.413Z,100109.71
2017-07-28T11:06:43.851Z,100109.17
2017-07-28T11:09:11.319Z,100116.27
2017-07-28T11:11:38.720Z,100115.17
2017-07-28T11:14:06.145Z,100126.09
2017-07-28T11:16:33.670Z,100121.54
2017-07-28T11:19:01.112Z,100131.39
2017-07-28T11:21:28.514Z,100127.23
2017-07-28T11:23:55.934Z,100123.97
2017-07-28T11:26:23.326Z,100126.28
2017-07-28T11:28:50.730Z,100125.07
2017-07-28T11:31:18.657Z,100124.64
2017-07-28T11:33:46.050Z,100120.85
2017-07-28T11:36:13.445Z,100110.31
2017-07-28T11:38:41.000Z,100126.38
2017-07-28T11:41:08.418Z,100117.03
2017-07-28T11:43:35.833Z,100114.41
2017-07-28T11:46:03.274Z,100118.87
2017-07-28T11:48:30.678Z,100111.77
2017-07-28T11:50:58.137Z,100111.26
2017-07-28T11:53:25.883Z,100115.66
2017-07-28T11:55:53.270Z,100112.61
2017-07-28T11:58:20.674Z,100109.36
2017-07-28T12:00:48.207Z,100108.06
2017-07-28T12:03:15.604Z,100114.78
2017-07-28T12:05:43.907Z,100118.99
2017-07-28T12:08:11.331Z,100113.73
2017-07-28T12:10:38.757Z,100116.57
2017-07-28T12:13:06.165Z,100120.62
2017-07-28T12:15:33.731Z,100118.67
2017-07-28T12:18:01.137Z,100122.55
2017-07-28T12:20:28.532Z,100118.16
2017-07-28T12:22:56.109Z,100101.33
2017-07-28T12:25:24.486Z,100114.94
2017-07-28T12:27:51.982Z,100112.69
2017-07-28T12:30:19.495Z,100115.77
2017-07-28T12:32:46.926Z,100125.86
2017-07-28T12:35:14.333Z,100126.28
2017-07-28T12:37:41.822Z,100125.89
2017-07-28T12:40:10.176Z,100132.02
2017-07-28T12:42:37.775Z,100132.78
2017-07-28T12:45:05.463Z,100141.23
2017-07-28T12:47:33.001Z,100150.09
2017-07-28T12:50:00.411Z,100145.75
2017-07-28T12:52:27.921Z,100139.78
2017-07-28T12:54:55.394Z,100144.66
2017-07-28T12:57:22.780Z,100140.77
2017-07-28T12:59:50.327Z,100136.56
2017-07-28T13:02:17.716Z,100134.53
2017-07-28T13:04:45.111Z,100136.66
2017-07-28T13:07:12.619Z,100147.44
2017-07-28T13:09:40.079Z,100136.47
2017-07-28T13:12:07.509Z,100145.06
2017-07-28T13:14:34.968Z,100147.27
2017-07-28T13:17:02.397Z,100147.53
2017-07-28T13:19:29.894Z,100146.36
2017-07-28T13:21:57.396Z,100148.30
2017-07-28T13:24:24.792Z,100144.97
2017-07-28T13:26:52.314Z,100151.58
2017-07-28T13:29:19.863Z,100149.63
2017-07-28T13:31:47.251Z,100152.13
2017-07-28T13:34:14.730Z,100145.07
2017-07-28T13:36:42.614Z,100149.02
2017-07-28T13:39:10.063Z,100144.80
2017-07-28T13:41:37.470Z,100147.40
2017-07-28T13:44:05.374Z,100143.59
2017-07-28T13:46:38.448Z,100140.30
2017-07-28T13:49:05.879Z,100148.95
2017-07-28T13:51:33.305Z,100152.86
2017-07-28T13:54:00.687Z,100154.98
2017-07-28T13:56:28.267Z,100150.30
2017-07-28T13:58:55.659Z,100150.23
2017-07-28T14:01:23.087Z,100145.84
2017-07-28T14:03:50.729Z,100151.63
2017-07-28T14:06:18.155Z,100149.41
2017-07-28T14:08:45.597Z,100148.01
2017-07-28T14:11:13.040Z,100147.70
2017-07-28T14:13:40.435Z,100146.25
2017-07-28T14:16:07.875Z,100150.06
2017-07-28T14:18:35.406Z,100147.33
2017-07-28T14:21:02.795Z,100143.88
2017-07-28T14:23:30.208Z,100147.09
2017-07-28T14:25:57.754Z,100150.22
2017-07-28T14:28:25.204Z,100158.27
2017-07-28T14:30:52.712Z,100158.86
2017-07-28T14:33:20.254Z,100159.45
2017-07-28T14:35:47.642Z,100156.21
2017-07-28T14:38:15.030Z,100157.69
2017-07-28T14:40:42.671Z,100163.84
2017-07-28T14:43:10.068Z,100158.73
2017-07-28T14:45:37.500Z,100153.34
2017-07-28T14:48:06.144Z,100162.47
2017-07-28T14:50:33.583Z,100154.98
2017-07-28T14:53:00.955Z,100149.56
2017-07-28T14:55:28.439Z,100152.11
2017-07-28T14:57:55.891Z,100149.63
2017-07-28T15:00:23.329Z,100154.64
2017-07-28T15:02:50.899Z,100144.71
2017-07-28T15:05:18.303Z,100144.98
2017-07-28T15:07:45.715Z,100149.47
2017-07-28T15:10:13.514Z,100151.48
2017-07-28T15:12:40.937Z,100147.67
2017-07-28T15:15:08.367Z,100150.05
2017-07-28T15:17:35.968Z,100148.41
2017-07-28T15:20:03.383Z,100152.19
2017-07-28T15:22:30.802Z,100152.92
2017-07-28T15:25:02.399Z,100152.10
2017-07-28T15:27:29.797Z,100141.47
2017-07-28T15:29:57.208Z,100149.32
2017-07-28T15:32:25.142Z,100161.94
2017-07-28T15:34:52.685Z,100148.50
2017-07-28T15:37:20.118Z,100160.79
2017-07-28T15:39:47.726Z,100163.97
2017-07-28T15:42:15.105Z,100168.15
2017-07-28T15:44:42.515Z,100170.25
2017-07-28T15:47:10.125Z,100162.62
2017-07-28T15:49:37.527Z,100165.18
2017-07-28T15:52:04.954Z,100162.61
2017-07-28T15:54:32.522Z,100166.28
2017-07-28T15:56:59.954Z,100162.48
2017-07-28T15:59:27.375Z,100166.58
2017-07-28T16:01:54.886Z,100166.89
2017-07-28T16:04:22.286Z,100164.25
2017-07-28T16:06:49.711Z,100167.28
2017-07-28T16:09:17.162Z,100164.31
2017-07-28T16:11:44.572Z,100169.52
2017-07-28T16:14:11.983Z,100173.50
2017-07-28T16:16:39.775Z,100178.08
2017-07-28T16:19:07.180Z,100173.75
2017-07-28T16:21:34.651Z,100181.17
2017-07-28T16:24:02.176Z,100173.95
2017-07-28T16:26:31.538Z,100180.83
2017-07-28T16:28:58.942Z,100184.21
2017-07-28T16:31:26.748Z,100179.03
2017-07-28T16:33:54.139Z,100183.08
2017-07-28T16:36:21.561Z,100186.48
2017-07-28T16:38:48.978Z,100185.46
2017-07-28T16:41:16.391Z,100188.86
2017-07-28T16:43:43.829Z,100187.17
2017-07-28T16:46:11.954Z,100180.39
2017-07-28T16:48:39.386Z,100183.34
2017-07-28T16:51:06.786Z,100187.18
2017-07-28T16:53:34.410Z,100181.48
2017-07-28T16:56:01.852Z,100183.18
2017-07-28T16:58:29.334Z,100191.67
2017-07-28T17:00:57.058Z,100191.14
2017-07-28T17:03:25.640Z,100192.69
2017-07-28T17:05:53.047Z,100176.97
2017-07-28T17:08:20.447Z,100183.28
2017-07-28T17:10:47.846Z,100182.70
2017-07-28T17:13:17.001Z,100185.05
2017-07-28T17:15:44.468Z,100179.93
2017-07-28T17:18:11.851Z,100178.98
2017-07-28T17:20:39.277Z,100184.72
2017-07-28T17:23:06.810Z,100183.18
2017-07-28T17:25:34.233Z,100183.45
2017-07-28T17:28:01.628Z,100183.27
2017-07-28T17:30:29.428Z,100176.73
2017-07-28T17:32:56.811Z,100173.59
2017-07-28T17:35:24.282Z,100176.92
2017-07-28T17:37:51.699Z,100172.94
2017-07-28T17:40:19.114Z,100172.74
2017-07-28T17:42:53.384Z,100175.13
2017-07-28T17:45:20.793Z,100180.02
2017-07-28T17:47:48.203Z,100174.36
2017-07-28T17:50:16.030Z,100176.81
2017-07-28T17:52:43.494Z,100182.72
2017-07-28T17:55:10.873Z,100175.58
2017-07-28T17:57:38.684Z,100173.79
2017-07-28T18:00:06.259Z,100175.47
2017-07-28T18:02:33.689Z,100169.02
2017-07-28T18:05:01.476Z,100168.32
2017-07-28T18:07:28.890Z,100163.99
2017-07-28T18:09:56.279Z,100175.59
2017-07-28T18:12:23.947Z,100175.87
2017-07-28T18:14:51.374Z,100182.61
2017-07-28T18:17:18.774Z,100181.78
2017-07-28T18:19:46.328Z,100179.33
2017-07-28T18:22:13.720Z,100184.05
2017-07-28T18:24:41.214Z,100182.81
2017-07-28T18:27:08.649Z,100186.57
2017-07-28T18:29:36.038Z,100188.45
2017-07-28T18:32:03.458Z,100185.80
2017-07-28T18:34:31.013Z,100196.33
2017-07-28T18:36:58.430Z,100200.58
2017-07-28T18:39:25.977Z,100204.13
2017-07-28T18:41:53.653Z,100199.42
2017-07-28T18:44:21.324Z,100203.70
2017-07-28T18:46:48.845Z,100201.95
2017-07-28T18:49:16.823Z,100209.13
2017-07-28T18:51:44.274Z,100215.11
2017-07-28T18:54:11.764Z,100213.11
2017-07-28T18:56:39.283Z,100210.43
2017-07-28T18:59:06.708Z,100211.40
2017-07-28T19:01:34.139Z,100201.14
2017-07-28T19:04:01.542Z,100206.55
2017-07-28T19:06:28.961Z,100207.25
2017-07-28T19:08:56.359Z,100208.48
2017-07-28T19:11:23.864Z,100205.38
2017-07-28T19:13:51.306Z,100207.95
2017-07-28T19:16:18.698Z,100211.48
2017-07-28T19:18:46.365Z,100210.00
2017-07-28T19:21:13.787Z,100210.67
2017-07-28T19:23:41.199Z,100210.55
2017-07-28T19:26:08.852Z,100223.02
2017-07-28T19:28:36.301Z,100222.61
2017-07-28T19:31:03.679Z,100227.89
2017-07-28T19:33:31.214Z,100223.41
2017-07-28T19:35:58.633Z,100224.10
2017-07-28T19:38:26.088Z,100226.65
2017-07-28T19:40:53.531Z,100230.45
2017-07-28T19:43:20.958Z,100234.36
2017-07-28T19:45:48.389Z,100235.05
2017-07-28T19:48:19.218Z,100235.86
2017-07-28T19:50:46.666Z,100234.09
2017-07-28T19:53:14.054Z,100228.83
2017-07-28T19:55:41.627Z,100236.53
2017-07-28T19:58:09.040Z,100240.05
2017-07-28T20:00:36.483Z,100238.64
2017-07-28T20:03:04.952Z,100243.93
2017-07-28T20:05:33.483Z,100250.39
2017-07-28T20:08:01.608Z,100254.97
2017-07-28T20:10:29.397Z,100256.02
2017-07-28T20:12:56.790Z,100255.86
2017-07-28T20:15:24.332Z,100256.05
2017-07-28T20:17:51.902Z,100260.88
2017-07-28T20:20:19.325Z,100258.38
2017-07-28T20:22:46.794Z,100252.28
2017-07-28T20:25:14.382Z,100256.72
2017-07-28T20:27:42.506Z,100253.43
2017-07-28T20:30:09.908Z,100253.09
2017-07-28T20:32:37.705Z,100254.92
2017-07-28T20:35:05.123Z,100258.05
2017-07-28T20:37:32.548Z,100251.18
2017-07-28T20:40:00.313Z,100256.45
2017-07-28T20:42:27.743Z,100256.05
2017-07-28T20:44:55.936Z,100248.15
2017-07-28T20:47:23.378Z,100245.48
2017-07-28T20:49:50.766Z,100244.78
2017-07-28T20:52:18.183Z,100244.51
2017-07-28T20:54:45.599Z,100238.57
2017-07-28T20:57:13.391Z,100249.98
2017-07-28T20:59:40.827Z,100252.48
2017-07-28T21:02:08.564Z,100255.36
2017-07-28T21:04:35.986Z,100239.91
2017-07-28T21:07:03.426Z,100235.31
2017-07-28T21:09:30.992Z,100235.86
2017-07-28T21:11:59.491Z,100235.69
2017-07-28T21:14:27.637Z,100246.02
2017-07-28T21:16:55.130Z,100241.98
2017-07-28T21:19:22.575Z,100238.73
2017-07-28T21:21:49.983Z,100243.34
2017-07-28T21:24:17.439Z,100239.03
2017-07-28T21:26:44.838Z,100245.16
2017-07-28T21:29:12.287Z,100243.11
2017-07-28T21:31:39.855Z,100245.44
2017-07-28T21:34:07.282Z,100247.23
2017-07-28T21:36:34.812Z,100249.03
2017-07-28T21:39:02.386Z,100249.07
2017-07-28T21:41:29.828Z,100242.95
2017-07-28T21:43:57.252Z,100244.85
2017-07-28T21:46:24.883Z,100242.16
2017-07-28T21:48:52.321Z,100242.19
2017-07-28T21:51:19.750Z,100241.00
2017-07-28T21:53:47.304Z,100238.23
2017-07-28T21:56:14.707Z,100231.49
2017-07-28T21:58:42.107Z,100236.61
2017-07-28T22:01:09.672Z,100220.95
2017-07-28T22:03:37.084Z,100214.42
2017-07-28T22:06:04.521Z,100214.31
2017-07-28T22:08:31.971Z,100212.55
2017-07-28T22:10:59.382Z,100209.44
2017-07-28T22:13:26.777Z,100205.39
2017-07-28T22:15:54.200Z,100199.94
2017-07-28T22:18:21.622Z,100199.27
2017-07-28T22:20:49.062Z,100196.98
2017-07-28T22:23:16.578Z,100196.78
2017-07-28T22:25:43.979Z,100196.56
2017-07-28T22:28:11.414Z,100197.81
2017-07-28T22:30:38.873Z,100197.59
2017-07-28T22:33:06.307Z,100192.48
2017-07-28T22:35:33.704Z,100189.16
2017-07-28T22:38:01.177Z,100178.89
2017-07-28T22:40:28.582Z,100176.36
2017-07-28T22:42:55.978Z,100192.16
2017-07-28T22:45:23.630Z,100186.20
2017-07-28T22:47:51.080Z,100182.58
2017-07-28T22:50:18.514Z,100175.14
2017-07-28T22:52:46.073Z,100182.69
2017-07-28T22:55:13.474Z,100186.63
2017-07-28T22:57:40.871Z,100184.59
2017-07-28T23:00:08.447Z,100178.91
2017-07-28T23:02:35.862Z,100173.36
2017-07-28T23:05:03.262Z,100172.28
2017-07-28T23:07:30.793Z,100169.53
2017-07-28T23:09:58.193Z,100172.53
2017-07-28T23:12:25.659Z,100169.56
2017-07-28T23:14:53.528Z,100175.23
2017-07-28T23:17:20.939Z,100166.06
2017-07-28T23:19:48.363Z,100162.57
2017-07-28T23:22:15.798Z,100163.13
2017-07-28T23:24:43.226Z,100162.70
2017-07-28T23:27:10.647Z,100161.11
2017-07-28T23:29:38.478Z,100169.73
2017-07-28T23:32:05.923Z,100163.27
2017-07-28T23:34:33.327Z,100157.45
2017-07-28T23:37:00.937Z,100159.77
2017-07-28T23:39:28.372Z,100163.42
2017-07-28T23:41:55.754Z,100155.05
2017-07-28T23:44:23.475Z,100147.91
2017-07-28T23:46:50.903Z,100141.55
2017-07-28T23:49:18.316Z,100145.84
2017-07-28T23:51:45.862Z,100156.73
2017-07-28T23:54:13.265Z,100155.66
2017-07-28T23:56:40.678Z,100153.13
2017-07-28T23:59:08.109Z,100147.36
